createdAt,value
2023-02-23T00:00:21.697Z,31.4
2023-02-23T00:01:38.802Z,32.1
2023-02-23T00:02:54.928Z,31.1
2023-02-23T00:04:11.049Z,31.6
2023-02-23T00:05:28.154Z,32.3
2023-02-23T00:06:45.259Z,32.9
2023-02-23T00:08:01.385Z,31.4
2023-02-23T00:09:17.506Z,30.4
2023-02-23T00:10:34.611Z,32.6
2023-02-23T00:11:51.717Z,34.2
2023-02-23T00:13:08.821Z,32.6
2023-02-23T00:14:25.926Z,33.4
2023-02-23T00:15:43.031Z,32.8
2023-02-23T00:17:00.136Z,31.3
2023-02-23T00:18:17.241Z,33
2023-02-23T00:19:33.362Z,30.9
2023-02-23T00:20:50.468Z,30
2023-02-23T00:22:07.572Z,30.2
2023-02-23T00:23:24.678Z,32.4
2023-02-23T00:24:41.783Z,29.3
2023-02-23T00:25:58.887Z,30.1
2023-02-23T00:27:15.992Z,28.4
2023-02-23T00:28:33.097Z,29.2
2023-02-23T00:29:50.202Z,30.3
2023-02-23T00:31:07.306Z,28.7
2023-02-23T00:32:24.411Z,30.2
2023-02-23T00:33:41.516Z,33.9
2023-02-23T00:34:58.621Z,29.4
2023-02-23T00:36:14.747Z,29.6
2023-02-23T00:37:30.868Z,30.1
2023-02-23T00:38:46.994Z,31.1
2023-02-23T00:41:20.220Z,28.2
2023-02-23T00:42:37.325Z,28.5
2023-02-23T00:43:54.430Z,28.8
2023-02-23T00:45:11.534Z,29.5
2023-02-23T00:46:28.639Z,31.8
2023-02-23T00:47:45.744Z,30.8
2023-02-23T00:49:02.849Z,31.8
2023-02-23T00:50:19.954Z,30.1
2023-02-23T00:51:37.059Z,29.7
2023-02-23T00:52:54.164Z,31.2
2023-02-23T00:54:11.269Z,32.4
2023-02-23T00:55:28.374Z,31
2023-02-23T00:56:44.495Z,33.2
2023-02-23T00:58:01.600Z,34.5
2023-02-23T00:59:18.705Z,33.3
2023-02-23T01:00:35.810Z,35
2023-02-23T01:01:52.915Z,33.9
2023-02-23T01:03:10.020Z,33.6
2023-02-23T01:04:27.125Z,34.6
2023-02-23T01:05:44.230Z,32.1
2023-02-23T01:07:01.335Z,34.6
2023-02-23T01:08:18.440Z,35.7
2023-02-23T01:09:35.545Z,34.6
2023-02-23T01:10:52.650Z,36.3
2023-02-23T01:12:09.755Z,33.7
2023-02-23T01:13:26.859Z,34
2023-02-23T01:14:42.980Z,33.5
2023-02-23T01:16:00.085Z,35.6
2023-02-23T01:17:17.190Z,33.6
2023-02-23T01:18:34.295Z,34.1
2023-02-23T01:19:51.400Z,34.6
2023-02-23T01:21:08.504Z,33.4
2023-02-23T01:22:25.610Z,33.3
2023-02-23T01:23:42.714Z,33.5
2023-02-23T01:24:59.819Z,32.2
2023-02-23T01:26:16.924Z,32.2
2023-02-23T01:27:34.029Z,31.1
2023-02-23T01:28:51.134Z,32.3
2023-02-23T01:30:08.239Z,32.8
2023-02-23T01:31:24.360Z,32.9
2023-02-23T01:32:41.464Z,30.8
2023-02-23T01:33:58.570Z,29.6
2023-02-23T01:35:15.674Z,32.1
2023-02-23T01:36:32.779Z,31
2023-02-23T01:37:49.882Z,30.4
2023-02-23T01:39:06.987Z,30.3
2023-02-23T01:40:24.092Z,28.1
2023-02-23T01:41:41.197Z,32.1
2023-02-23T01:42:57.323Z,30.7
2023-02-23T01:44:13.444Z,29.4
2023-02-23T01:45:29.568Z,29.9
2023-02-23T01:46:45.689Z,30.4
2023-02-23T01:48:02.794Z,30.3
2023-02-23T01:49:19.899Z,28.2
2023-02-23T01:50:37.004Z,28.2
2023-02-23T01:51:54.108Z,31.1
2023-02-23T01:53:11.213Z,29.8
2023-02-23T01:54:28.318Z,29.9
2023-02-23T01:55:45.423Z,30.1
2023-02-23T01:57:02.528Z,30.7
2023-02-23T01:58:19.633Z,32.9
2023-02-23T01:59:36.738Z,31
2023-02-23T02:00:53.843Z,31.9
2023-02-23T02:02:10.948Z,30.2
2023-02-23T02:03:27.069Z,33.1
2023-02-23T02:04:44.173Z,29.9
2023-02-23T02:06:01.278Z,29.4
2023-02-23T02:07:18.383Z,30.2
2023-02-23T02:08:35.488Z,31.3
2023-02-23T02:09:52.593Z,32
2023-02-23T02:11:09.698Z,30
2023-02-23T02:12:25.824Z,30.4
2023-02-23T02:13:41.943Z,30.4
2023-02-23T02:14:59.048Z,32
2023-02-23T02:16:16.153Z,31.4
2023-02-23T02:17:33.258Z,32.4
2023-02-23T02:18:49.384Z,31.1
2023-02-23T02:20:05.505Z,32.2
2023-02-23T02:21:22.610Z,30.7
2023-02-23T02:22:39.715Z,31.6
2023-02-23T02:23:56.820Z,34.4
2023-02-23T02:25:13.925Z,31.8
2023-02-23T02:26:31.030Z,31.4
2023-02-23T02:27:48.135Z,33.3
2023-02-23T02:29:05.240Z,33.3
2023-02-23T02:30:22.345Z,31
2023-02-23T02:31:39.449Z,33.9
2023-02-23T02:32:56.554Z,33.7
2023-02-23T02:34:13.659Z,33.6
2023-02-23T02:35:30.764Z,34.9
2023-02-23T02:36:46.885Z,34.6
2023-02-23T02:38:03.990Z,32.6
2023-02-23T02:39:21.095Z,31.9
2023-02-23T02:40:38.199Z,31.4
2023-02-23T02:41:55.304Z,29.1
2023-02-23T02:43:12.409Z,32
2023-02-23T02:44:29.514Z,31.7
2023-02-23T02:45:45.640Z,31.2
2023-02-23T02:47:01.761Z,33.2
2023-02-23T02:48:17.888Z,30.5
2023-02-23T02:49:34.009Z,32.1
2023-02-23T02:50:51.113Z,30.8
2023-02-23T02:52:08.218Z,30.6
2023-02-23T02:53:25.323Z,29.1
2023-02-23T02:54:42.428Z,30.7
2023-02-23T02:55:59.533Z,32.5
2023-02-23T02:57:16.638Z,31.8
2023-02-23T02:58:33.743Z,31.3
2023-02-23T02:59:50.848Z,30.7
2023-02-23T03:01:07.953Z,29.9
2023-02-23T03:02:25.057Z,29.7
2023-02-23T03:03:42.163Z,30.7
2023-02-23T03:04:59.268Z,30
2023-02-23T03:06:15.389Z,32.6
2023-02-23T03:07:32.494Z,32.9
2023-02-23T03:08:49.598Z,31.3
2023-02-23T03:10:06.703Z,33.4
2023-02-23T03:11:23.808Z,32.3
2023-02-23T03:12:40.913Z,34
2023-02-23T03:13:58.018Z,32.8
2023-02-23T03:15:14.144Z,35.3
2023-02-23T03:16:30.265Z,36
2023-02-23T03:17:46.391Z,35
2023-02-23T03:19:02.512Z,34.9
2023-02-23T03:20:19.617Z,33.6
2023-02-23T03:21:36.722Z,37.1
2023-02-23T03:22:53.827Z,35.5
2023-02-23T03:24:10.932Z,37.7
2023-02-23T03:25:28.036Z,34.8
2023-02-23T03:26:45.141Z,35.8
2023-02-23T03:28:02.246Z,36.8
2023-02-23T03:29:19.351Z,37.2
2023-02-23T03:30:36.456Z,37.3
2023-02-23T03:31:53.561Z,38
2023-02-23T03:33:10.666Z,37.4
2023-02-23T03:34:27.770Z,36.5
2023-02-23T03:35:43.891Z,38
2023-02-23T03:37:00.996Z,41.6
2023-02-23T03:38:18.101Z,39.6
2023-02-23T03:39:35.206Z,39.4
2023-02-23T03:40:52.311Z,36.4
2023-02-23T03:42:09.416Z,40.5
2023-02-23T03:43:26.521Z,39.3
2023-02-23T03:44:42.647Z,37
2023-02-23T03:45:58.768Z,39
2023-02-23T03:47:15.873Z,40.2
2023-02-23T03:48:31.999Z,40.5
2023-02-23T03:49:48.120Z,41.2
2023-02-23T03:51:05.224Z,39.2
2023-02-23T03:52:22.329Z,44.3
2023-02-23T03:53:39.434Z,42.5
2023-02-23T03:54:56.539Z,43.3
2023-02-23T03:56:13.644Z,40.9
2023-02-23T03:57:30.749Z,43.7
2023-02-23T03:58:47.854Z,43.2
2023-02-23T04:00:04.958Z,42.6
2023-02-23T04:01:22.063Z,41.8
2023-02-23T04:02:39.168Z,45.5
2023-02-23T04:03:56.273Z,42.4
2023-02-23T04:05:13.378Z,42.4
2023-02-23T04:06:29.499Z,43.2
2023-02-23T04:07:46.604Z,41.7
2023-02-23T04:09:03.709Z,41.3
2023-02-23T04:10:20.814Z,41.8
2023-02-23T04:11:37.918Z,42.1
2023-02-23T04:12:55.023Z,40.6
2023-02-23T04:14:12.128Z,42.1
2023-02-23T04:15:28.254Z,40.2
2023-02-23T04:16:44.375Z,40
2023-02-23T04:18:00.501Z,46.1
2023-02-23T04:19:16.622Z,48.3
2023-02-23T04:20:33.727Z,48.1
2023-02-23T04:21:50.832Z,48.5
2023-02-23T04:23:07.937Z,47.4
2023-02-23T04:24:25.042Z,42.9
2023-02-23T04:25:42.148Z,43.3
2023-02-23T04:26:59.253Z,42.6
2023-02-23T04:28:16.357Z,42.8
2023-02-23T04:29:33.462Z,45.2
2023-02-23T04:30:50.567Z,40.3
2023-02-23T04:32:07.672Z,41.4
2023-02-23T04:33:24.777Z,41.9
2023-02-23T04:34:41.882Z,41.8
2023-02-23T04:35:58.003Z,38.4
2023-02-23T04:37:14.124Z,40.8
2023-02-23T04:38:31.229Z,44.1
2023-02-23T04:39:48.333Z,44.1
2023-02-23T04:41:05.438Z,45.4
2023-02-23T04:42:22.543Z,44.4
2023-02-23T04:43:39.648Z,46.7
2023-02-23T04:44:56.752Z,45.7
2023-02-23T04:46:13.857Z,49.6
2023-02-23T04:47:30.962Z,42.7
2023-02-23T04:48:48.067Z,50.3
2023-02-23T04:50:05.172Z,49.2
2023-02-23T04:51:22.276Z,46.5
2023-02-23T04:52:39.381Z,46.7
2023-02-23T04:53:55.502Z,47.6
2023-02-23T04:55:12.607Z,47.8
2023-02-23T04:56:29.712Z,43.9
2023-02-23T04:57:46.817Z,45.4
2023-02-23T04:59:03.922Z,50.1
2023-02-23T05:00:21.027Z,53.6
2023-02-23T05:01:38.131Z,54.1
2023-02-23T05:02:55.236Z,53
2023-02-23T05:04:12.341Z,53.3
2023-02-23T05:05:29.445Z,57.5
2023-02-23T05:06:46.550Z,58.9
2023-02-23T05:08:03.655Z,54.8
2023-02-23T05:09:20.760Z,56.1
2023-02-23T05:10:36.881Z,59.2
2023-02-23T05:11:53.986Z,61.5
2023-02-23T05:13:11.091Z,62.3
2023-02-23T05:14:28.196Z,56.9
2023-02-23T05:15:45.300Z,55.2
2023-02-23T05:17:02.405Z,52.3
2023-02-23T05:18:18.531Z,56.8
2023-02-23T05:19:34.652Z,63.7
2023-02-23T05:20:51.757Z,64.8
2023-02-23T05:22:07.883Z,62.7
2023-02-23T05:23:24.004Z,65.8
2023-02-23T05:24:41.109Z,54.6
2023-02-23T05:25:58.214Z,56.7
2023-02-23T05:27:15.318Z,60.7
2023-02-23T05:28:32.423Z,68.2
2023-02-23T05:29:49.528Z,61.7
2023-02-23T05:31:06.633Z,63.6
2023-02-23T05:32:23.738Z,63.5
2023-02-23T05:33:40.843Z,62
2023-02-23T05:34:57.947Z,64.3
2023-02-23T05:36:15.053Z,57.9
2023-02-23T05:37:32.157Z,59.8
2023-02-23T05:38:49.262Z,64.4
2023-02-23T05:40:05.383Z,62.5
2023-02-23T05:41:22.488Z,66.4
2023-02-23T05:42:39.593Z,63.4
2023-02-23T05:43:56.697Z,60.8
2023-02-23T05:45:13.802Z,59.6
2023-02-23T05:46:30.907Z,64.9
2023-02-23T05:49:05.117Z,64
2023-02-23T05:50:22.222Z,60.1
2023-02-23T05:51:39.327Z,65.6
2023-02-23T05:52:56.432Z,63.6
2023-02-23T05:54:13.537Z,62.1
2023-02-23T05:55:30.641Z,63
2023-02-23T05:56:46.762Z,64.9
2023-02-23T05:58:03.867Z,63.7
2023-02-23T05:59:20.972Z,61.7
2023-02-23T06:00:38.077Z,65.7
2023-02-23T06:01:55.182Z,59.4
2023-02-23T06:03:12.287Z,57.4
2023-02-23T06:04:28.413Z,58.3
2023-02-23T06:05:44.534Z,68.6
2023-02-23T06:07:01.639Z,57.3
2023-02-23T06:08:18.744Z,59.7
2023-02-23T06:09:34.870Z,60.6
2023-02-23T06:10:50.991Z,60
2023-02-23T06:12:08.096Z,64.6
2023-02-23T06:13:25.201Z,60.4
2023-02-23T06:14:42.306Z,65.4
2023-02-23T06:15:59.411Z,63.3
2023-02-23T06:17:16.516Z,64.4
2023-02-23T06:18:33.620Z,69.3
2023-02-23T06:19:50.725Z,73.5
2023-02-23T06:21:07.830Z,67.4
2023-02-23T06:22:24.935Z,69.2
2023-02-23T06:23:42.039Z,70.6
2023-02-23T06:24:59.144Z,73.8
2023-02-23T06:26:16.249Z,72.8
2023-02-23T06:27:32.370Z,75.3
2023-02-23T06:28:49.475Z,74
2023-02-23T06:30:06.580Z,72.7
2023-02-23T06:31:23.685Z,73.1
2023-02-23T06:32:40.790Z,71.3
2023-02-23T06:33:57.894Z,72.9
2023-02-23T06:35:14.999Z,75.9
2023-02-23T06:36:31.126Z,73
2023-02-23T06:37:47.246Z,69.2
2023-02-23T06:39:03.373Z,70.4
2023-02-23T06:40:19.494Z,65.9
2023-02-23T06:41:36.599Z,72
2023-02-23T06:42:53.704Z,75.1
2023-02-23T06:44:10.808Z,69.7
2023-02-23T06:45:27.913Z,71
2023-02-23T06:46:45.018Z,67.4
2023-02-23T06:48:02.123Z,66
2023-02-23T06:49:19.228Z,69.3
2023-02-23T06:50:36.333Z,71.5
2023-02-23T06:51:53.438Z,69.8
2023-02-23T06:53:10.543Z,70.5
2023-02-23T06:54:27.647Z,65.8
2023-02-23T06:55:44.752Z,69.5
2023-02-23T06:57:00.873Z,66.3
2023-02-23T06:58:17.978Z,68.8
2023-02-23T06:59:35.083Z,69.8
2023-02-23T07:00:52.188Z,68.1
2023-02-23T07:02:09.293Z,69.6
2023-02-23T07:03:26.398Z,66.4
2023-02-23T07:04:43.503Z,73.6
2023-02-23T07:06:00.608Z,69.3
2023-02-23T07:07:17.713Z,66.6
2023-02-23T07:08:34.817Z,64.7
2023-02-23T07:09:51.922Z,68.4
2023-02-23T07:11:09.027Z,72.1
2023-02-23T07:13:43.236Z,70.1
2023-02-23T07:14:59.357Z,72.1
2023-02-23T07:16:16.462Z,69.2
2023-02-23T07:17:33.567Z,65.3
2023-02-23T07:18:50.671Z,68.5
2023-02-23T07:20:07.776Z,77
2023-02-23T07:21:24.881Z,69.1
2023-02-23T07:22:41.986Z,69.9
2023-02-23T07:23:59.091Z,64.5
2023-02-23T07:25:16.197Z,70.8
2023-02-23T07:26:33.301Z,70
2023-02-23T07:27:50.406Z,67.4
2023-02-23T07:29:07.511Z,65.5
2023-02-23T07:30:24.616Z,64.7
2023-02-23T07:31:40.737Z,63.5
2023-02-23T07:32:57.841Z,66.3
2023-02-23T07:34:14.946Z,64.8
2023-02-23T07:35:32.051Z,62.2
2023-02-23T07:36:49.156Z,64.7
2023-02-23T07:38:06.262Z,70.6
2023-02-23T07:39:23.366Z,70.8
2023-02-23T07:40:40.471Z,79.5
2023-02-23T07:41:57.576Z,80.6
2023-02-23T07:43:14.681Z,76.9
2023-02-23T07:44:31.785Z,77.1
2023-02-23T07:45:48.890Z,70.5
2023-02-23T07:47:05.995Z,69.6
2023-02-23T07:48:22.116Z,68.9
2023-02-23T07:49:39.221Z,77.2
2023-02-23T07:50:56.326Z,75.6
2023-02-23T07:52:13.430Z,76
2023-02-23T07:53:30.535Z,77.7
2023-02-23T07:54:47.641Z,72.8
2023-02-23T07:56:04.746Z,75.2
2023-02-23T07:57:21.850Z,73.1
2023-02-23T07:58:38.955Z,76.6
2023-02-23T07:59:56.060Z,77.5
2023-02-23T08:01:13.165Z,75.5
2023-02-23T08:02:30.270Z,74.5
2023-02-23T08:03:47.375Z,72.4
2023-02-23T08:05:03.495Z,71.3
2023-02-23T08:06:20.600Z,68.3
2023-02-23T08:07:37.705Z,66.8
2023-02-23T08:08:54.810Z,66.5
2023-02-23T08:10:11.915Z,62.2
2023-02-23T08:11:29.020Z,63.8
2023-02-23T08:12:46.125Z,58.8
2023-02-23T08:14:03.229Z,60.9
2023-02-23T08:15:20.334Z,56.2
2023-02-23T08:16:37.439Z,54.6
2023-02-23T08:17:54.543Z,55.8
2023-02-23T08:19:11.648Z,51.1
2023-02-23T08:20:28.753Z,48.8
2023-02-23T08:21:44.874Z,47.9
2023-02-23T08:23:01.000Z,45.4
2023-02-23T08:24:17.121Z,44.3
2023-02-23T08:25:34.226Z,43.1
2023-02-23T08:26:51.331Z,42.3
2023-02-23T08:28:07.457Z,41.6
2023-02-23T08:29:23.578Z,39.8
2023-02-23T08:30:40.682Z,39.4
2023-02-23T08:31:57.787Z,40.8
2023-02-23T08:33:14.892Z,39.9
2023-02-23T08:34:31.996Z,38.8
2023-02-23T08:35:49.101Z,36
2023-02-23T08:37:06.206Z,36.5
2023-02-23T08:38:23.311Z,36.5
2023-02-23T08:39:40.415Z,36.4
2023-02-23T08:40:57.520Z,38.5
2023-02-23T08:42:14.624Z,35.4
2023-02-23T08:43:31.729Z,34.3
2023-02-23T08:44:48.833Z,33.2
2023-02-23T08:46:04.954Z,33.5
2023-02-23T08:47:22.058Z,33
2023-02-23T08:48:39.163Z,32.2
2023-02-23T08:49:56.268Z,32.3
2023-02-23T08:51:13.372Z,32.5
2023-02-23T08:52:30.477Z,31.1
2023-02-23T08:53:47.581Z,31
2023-02-23T08:55:03.717Z,31.1
2023-02-23T08:56:19.838Z,31.1
2023-02-23T08:57:36.942Z,31.4
2023-02-23T08:58:54.047Z,30.6
2023-02-23T09:00:10.172Z,30
2023-02-23T09:01:26.293Z,29.2
2023-02-23T09:02:43.397Z,30
2023-02-23T09:04:00.503Z,28.1
2023-02-23T09:05:17.608Z,28.8
2023-02-23T09:06:34.712Z,27.6
2023-02-23T09:07:51.817Z,28.1
2023-02-23T09:09:08.921Z,26.9
2023-02-23T09:10:26.026Z,28.1
2023-02-23T09:11:43.130Z,26.9
2023-02-23T09:13:00.235Z,26.7
2023-02-23T09:14:17.340Z,27.1
2023-02-23T09:15:34.444Z,26.5
2023-02-23T09:16:51.548Z,27.1
2023-02-23T09:18:07.669Z,26.5
2023-02-23T09:19:24.773Z,25.7
2023-02-23T09:20:41.878Z,25.6
2023-02-23T09:21:58.982Z,25.2
2023-02-23T09:23:16.087Z,25.9
2023-02-23T09:24:33.191Z,25.5
2023-02-23T09:25:50.296Z,27.5
2023-02-23T09:27:07.401Z,25.6
2023-02-23T09:28:24.505Z,25.7
2023-02-23T09:29:41.609Z,24.8
2023-02-23T09:30:58.714Z,26.3
2023-02-23T09:32:15.816Z,25.5
2023-02-23T09:33:32.921Z,24.6
2023-02-23T09:34:49.041Z,25.2
2023-02-23T09:36:06.146Z,24.4
2023-02-23T09:37:23.251Z,24.4
2023-02-23T09:38:40.355Z,24.1
2023-02-23T09:39:57.459Z,24.3
2023-02-23T09:41:14.564Z,24.5
2023-02-23T09:42:31.668Z,24.3
2023-02-23T09:43:48.773Z,23.9
2023-02-23T09:45:05.877Z,24.8
2023-02-23T09:46:22.982Z,24.6
2023-02-23T09:47:39.107Z,23.8
2023-02-23T09:48:55.228Z,22.7
2023-02-23T09:50:12.333Z,23.9
2023-02-23T09:51:29.437Z,24.1
2023-02-23T09:52:45.563Z,23.7
2023-02-23T09:54:01.684Z,24.2
2023-02-23T09:55:18.788Z,24.1
2023-02-23T09:56:35.893Z,24.2
2023-02-23T09:57:52.997Z,23.4
2023-02-23T09:59:10.102Z,23.3
2023-02-23T10:00:27.206Z,24.2
2023-02-23T10:01:44.310Z,24.1
2023-02-23T10:03:01.415Z,24.7
2023-02-23T10:04:18.520Z,24
2023-02-23T10:05:35.624Z,24.6
2023-02-23T10:06:52.729Z,24.5
2023-02-23T10:08:09.833Z,24.6
2023-02-23T10:09:26.938Z,25
2023-02-23T10:10:43.058Z,24.1
2023-02-23T10:12:00.163Z,24.9
2023-02-23T10:13:17.267Z,24.9
2023-02-23T10:14:34.372Z,25.3
2023-02-23T10:15:51.477Z,25.3
2023-02-23T10:17:08.581Z,25.5
2023-02-23T10:18:25.686Z,27.4
2023-02-23T10:19:42.790Z,28.3
2023-02-23T10:20:59.895Z,27
2023-02-23T10:22:16.999Z,26.7
2023-02-23T10:23:34.104Z,26.9
2023-02-23T10:24:51.209Z,26.7
2023-02-23T10:26:07.334Z,27.1
2023-02-23T10:27:23.455Z,26.6
2023-02-23T10:28:40.559Z,26.8
2023-02-23T10:29:56.685Z,26.6
2023-02-23T10:31:12.806Z,27.3
2023-02-23T10:32:29.911Z,28
2023-02-23T10:33:47.015Z,29
2023-02-23T10:35:04.120Z,28.2
2023-02-23T10:36:21.224Z,28.4
2023-02-23T10:37:38.329Z,28.9
2023-02-23T10:38:55.433Z,28.4
2023-02-23T10:40:12.539Z,28.8
2023-02-23T10:41:29.643Z,28.1
2023-02-23T10:42:46.748Z,29.4
2023-02-23T10:44:03.852Z,28.2
2023-02-23T10:45:20.958Z,29.8
2023-02-23T10:46:38.063Z,29
2023-02-23T10:47:54.183Z,27.8
2023-02-23T10:50:28.392Z,28.6
2023-02-23T10:51:45.497Z,28.9
2023-02-23T10:53:02.600Z,27.7
2023-02-23T10:54:19.704Z,28.8
2023-02-23T10:55:36.809Z,27.8
2023-02-23T10:56:53.913Z,28.2
2023-02-23T10:58:10.040Z,28.3
2023-02-23T10:59:26.160Z,27.7
2023-02-23T11:00:43.265Z,28.2
2023-02-23T11:02:00.370Z,29.4
2023-02-23T11:03:17.474Z,27.6
2023-02-23T11:04:33.600Z,27.2
2023-02-23T11:05:49.721Z,26.5
2023-02-23T11:07:06.827Z,27.4
2023-02-23T11:08:23.932Z,27.9
2023-02-23T11:09:41.036Z,27.6
2023-02-23T11:10:58.141Z,27.7
2023-02-23T11:12:15.245Z,28.4
2023-02-23T11:13:32.349Z,28.4
2023-02-23T11:14:49.454Z,27.5
2023-02-23T11:16:06.558Z,28.1
2023-02-23T11:17:23.663Z,27.3
2023-02-23T11:18:40.768Z,26.5
2023-02-23T11:19:57.872Z,27.1
2023-02-23T11:21:14.977Z,26.5
2023-02-23T11:22:31.098Z,27.6
2023-02-23T11:23:48.202Z,27.3
2023-02-23T11:25:05.307Z,27.8
2023-02-23T11:26:22.411Z,27.5
2023-02-23T11:27:39.516Z,27.7
2023-02-23T11:28:56.621Z,27.7
2023-02-23T11:30:13.725Z,27.9
2023-02-23T11:31:29.851Z,27.2
2023-02-23T11:32:45.972Z,27.5
2023-02-23T11:34:02.098Z,27.3
2023-02-23T11:35:18.219Z,27.8
2023-02-23T11:36:35.324Z,28.6
2023-02-23T11:37:52.428Z,27.8
2023-02-23T11:39:09.533Z,29.6
2023-02-23T11:40:26.637Z,31.6
2023-02-23T11:41:43.742Z,31.2
2023-02-23T11:43:00.846Z,30.8
2023-02-23T11:44:17.951Z,30.4
2023-02-23T11:45:35.056Z,28.8
2023-02-23T11:46:52.160Z,29.7
2023-02-23T11:48:09.265Z,29.3
2023-02-23T11:49:26.369Z,30.1
2023-02-23T11:50:43.474Z,30
2023-02-23T11:51:59.594Z,29.8
2023-02-23T11:53:16.699Z,29.3
2023-02-23T11:54:33.803Z,29.4
2023-02-23T11:55:50.908Z,28.2
2023-02-23T11:57:08.012Z,28.8
2023-02-23T11:58:25.117Z,29.1
2023-02-23T11:59:42.221Z,30.2
2023-02-23T12:00:58.347Z,29.5
2023-02-23T12:02:14.468Z,28.8
2023-02-23T12:03:30.593Z,30.4
2023-02-23T12:04:46.714Z,28.7
2023-02-23T12:06:03.818Z,28
2023-02-23T12:07:20.923Z,25.6
2023-02-23T12:08:38.027Z,25.7
2023-02-23T12:09:55.132Z,24.6
2023-02-23T12:11:12.236Z,24.2
2023-02-23T12:12:29.341Z,22.6
2023-02-23T12:13:46.445Z,22.7
2023-02-23T12:15:03.550Z,21.4
2023-02-23T12:16:20.654Z,20.8
2023-02-23T12:17:37.759Z,20.6
2023-02-23T12:18:54.863Z,19.9
2023-02-23T12:20:11.968Z,18.8
2023-02-23T12:21:28.088Z,19.6
2023-02-23T12:22:45.193Z,20.9
2023-02-23T12:24:02.299Z,19.8
2023-02-23T12:25:19.403Z,19.4
2023-02-23T12:26:36.507Z,19.7
2023-02-23T12:27:53.612Z,20.7
2023-02-23T12:29:10.716Z,18.2
2023-02-23T12:30:27.821Z,19.4
2023-02-23T12:31:44.925Z,20.6
2023-02-23T12:33:02.030Z,20.4
2023-02-23T12:34:19.135Z,21.1
2023-02-23T12:35:36.239Z,21.5
2023-02-23T12:36:53.343Z,19.8
2023-02-23T12:38:09.464Z,19.9
2023-02-23T12:39:26.569Z,21.4
2023-02-23T12:40:43.673Z,19.7
2023-02-23T12:42:00.777Z,21.1
2023-02-23T12:43:17.882Z,20.9
2023-02-23T12:44:34.987Z,22
2023-02-23T12:45:52.091Z,20.9
2023-02-23T12:47:09.196Z,22.1
2023-02-23T12:48:26.300Z,22.2
2023-02-23T12:49:43.405Z,21.4
2023-02-23T12:51:00.509Z,22
2023-02-23T12:52:17.614Z,23.5
2023-02-23T12:53:34.719Z,25.3
2023-02-23T12:54:50.840Z,23.3
2023-02-23T12:56:07.945Z,22.3
2023-02-23T12:57:25.049Z,23.5
2023-02-23T12:58:42.153Z,22.2
2023-02-23T12:59:58.279Z,25.2
2023-02-23T13:01:14.400Z,24
2023-02-23T13:02:31.504Z,22.8
2023-02-23T13:03:47.630Z,21.8
2023-02-23T13:05:03.751Z,23.1
2023-02-23T13:06:20.855Z,22.7
2023-02-23T13:07:37.960Z,23
2023-02-23T13:08:55.064Z,23.2
2023-02-23T13:10:12.169Z,22.4
2023-02-23T13:11:29.274Z,24.3
2023-02-23T13:12:45.394Z,23.7
2023-02-23T13:14:02.499Z,24.4
2023-02-23T13:15:19.603Z,23.4
2023-02-23T13:16:36.708Z,23.3
2023-02-23T13:17:53.812Z,22.4
2023-02-23T13:19:10.917Z,22.7
2023-02-23T13:20:28.022Z,23.1
2023-02-23T13:21:45.127Z,24.7
2023-02-23T13:23:02.232Z,23.3
2023-02-23T13:24:19.336Z,23.2
2023-02-23T13:25:36.439Z,23.3
2023-02-23T13:26:53.543Z,23.4
2023-02-23T13:28:10.648Z,22.3
2023-02-23T13:29:26.769Z,24.3
2023-02-23T13:30:42.895Z,24.4
2023-02-23T13:31:59.016Z,26.1
2023-02-23T13:33:16.120Z,24.3
2023-02-23T13:34:33.225Z,24.9
2023-02-23T13:35:49.351Z,24
2023-02-23T13:37:05.472Z,24.7
2023-02-23T13:38:22.577Z,24.7
2023-02-23T13:39:39.682Z,26.2
2023-02-23T13:40:56.786Z,23.7
2023-02-23T13:42:13.891Z,24
2023-02-23T13:43:30.996Z,23.5
2023-02-23T13:44:48.100Z,25.9
2023-02-23T13:46:05.205Z,25.6
2023-02-23T13:47:22.310Z,26.4
2023-02-23T13:48:39.414Z,26.7
2023-02-23T13:49:56.519Z,25.2
2023-02-23T13:51:13.624Z,26
2023-02-23T13:52:30.729Z,24.8
2023-02-23T13:53:46.849Z,26.3
2023-02-23T13:55:03.954Z,25.8
2023-02-23T13:56:21.058Z,27
2023-02-23T13:57:38.163Z,26.9
2023-02-23T13:58:55.267Z,27.4
2023-02-23T14:00:12.372Z,28
2023-02-23T14:01:29.477Z,28.9
2023-02-23T14:02:46.581Z,29.1
2023-02-23T14:04:02.707Z,29.2
2023-02-23T14:05:18.828Z,28.7
2023-02-23T14:06:34.954Z,29.5
2023-02-23T14:07:51.074Z,29.9
2023-02-23T14:09:08.179Z,29.8
2023-02-23T14:10:25.283Z,30.1
2023-02-23T14:11:42.388Z,31
2023-02-23T14:12:59.492Z,31
2023-02-23T14:14:16.597Z,32.1
2023-02-23T14:15:33.701Z,30.4
2023-02-23T14:16:50.806Z,32
2023-02-23T14:18:07.910Z,32.2
2023-02-23T14:19:25.015Z,31.5
2023-02-23T14:20:42.119Z,32.5
2023-02-23T14:21:59.224Z,33.4
2023-02-23T14:23:16.328Z,33.5
2023-02-23T14:24:32.449Z,31.4
2023-02-23T14:25:49.554Z,33.5
2023-02-23T14:27:06.658Z,31.4
2023-02-23T14:28:23.763Z,30
2023-02-23T14:29:40.867Z,33.1
2023-02-23T14:30:57.972Z,33
2023-02-23T14:32:15.076Z,33.3
2023-02-23T14:33:31.202Z,32.5
2023-02-23T14:34:47.323Z,33.7
2023-02-23T14:36:03.448Z,34.8
2023-02-23T14:37:19.569Z,34
2023-02-23T14:38:36.673Z,35.1
2023-02-23T14:39:53.778Z,33.2
2023-02-23T14:41:10.882Z,35.3
2023-02-23T14:42:27.987Z,34.5
2023-02-23T14:43:45.092Z,35.4
2023-02-23T14:45:02.196Z,35.7
2023-02-23T14:46:19.301Z,35
2023-02-23T14:47:36.405Z,36.6
2023-02-23T14:48:53.510Z,36.2
2023-02-23T14:50:10.614Z,36.7
2023-02-23T14:51:27.718Z,40.7
2023-02-23T14:52:44.823Z,40.9
2023-02-23T14:54:00.944Z,45.6
2023-02-23T14:55:18.049Z,44.3
2023-02-23T14:56:35.153Z,44.9
2023-02-23T14:57:52.258Z,50
2023-02-23T14:59:09.362Z,51.1
2023-02-23T15:00:26.467Z,53.4
2023-02-23T15:01:43.571Z,56.5
2023-02-23T15:02:59.697Z,58.9
2023-02-23T15:04:15.818Z,57.5
2023-02-23T15:05:31.943Z,57.2
2023-02-23T15:06:49.048Z,59.5
2023-02-23T15:08:05.168Z,59.5
2023-02-23T15:09:22.273Z,60
2023-02-23T15:10:39.378Z,62.3
2023-02-23T15:11:56.482Z,62.8
2023-02-23T15:13:13.587Z,63.3
2023-02-23T15:14:30.691Z,67.3
2023-02-23T15:15:47.796Z,65.9
2023-02-23T15:17:04.900Z,64.7
2023-02-23T15:18:22.005Z,70.7
2023-02-23T15:19:39.109Z,68.9
2023-02-23T15:20:56.214Z,66.9
2023-02-23T15:22:13.318Z,69.3
2023-02-23T15:23:30.423Z,67
2023-02-23T15:24:46.544Z,65.3
2023-02-23T15:26:03.648Z,68.8
2023-02-23T15:27:20.753Z,66.2
2023-02-23T15:28:37.857Z,68.6
2023-02-23T15:29:54.962Z,64.1
2023-02-23T15:31:12.067Z,62.2
2023-02-23T15:32:28.193Z,62.1
2023-02-23T15:33:44.313Z,61.7
2023-02-23T15:35:00.439Z,61.9
2023-02-23T15:36:16.560Z,65.3
2023-02-23T15:37:33.665Z,64.1
2023-02-23T15:38:50.769Z,64.6
2023-02-23T15:40:07.874Z,66.4
2023-02-23T15:41:24.978Z,62.5
2023-02-23T15:42:42.083Z,61.2
2023-02-23T15:43:59.187Z,60
2023-02-23T15:45:16.292Z,60.5
2023-02-23T15:46:33.397Z,59.7
2023-02-23T15:47:50.502Z,65.2
2023-02-23T15:49:07.606Z,62
2023-02-23T15:50:24.711Z,64
2023-02-23T15:51:41.815Z,63.5
2023-02-23T15:52:57.936Z,62.3
2023-02-23T15:54:15.040Z,65.1
2023-02-23T15:55:32.145Z,65.2
2023-02-23T15:56:49.249Z,63.7
2023-02-23T15:58:06.354Z,65.6
2023-02-23T15:59:23.460Z,65.7
2023-02-23T16:00:40.565Z,64
2023-02-23T16:01:57.669Z,63.3
2023-02-23T16:03:14.774Z,62.2
2023-02-23T16:04:30.900Z,59.4
2023-02-23T16:05:47.020Z,61.6
2023-02-23T16:07:04.125Z,60.7
2023-02-23T16:08:21.229Z,64.3
2023-02-23T16:09:37.355Z,65.3
2023-02-23T16:10:54.460Z,64.1
2023-02-23T16:12:10.581Z,60.2
2023-02-23T16:13:27.686Z,62.1
2023-02-23T16:14:44.791Z,57.9
2023-02-23T16:16:01.896Z,54.8
2023-02-23T16:17:19.000Z,55.2
2023-02-23T16:18:36.105Z,55.5
2023-02-23T16:19:53.210Z,51.7
2023-02-23T16:21:10.315Z,50.9
2023-02-23T16:22:27.420Z,57.3
2023-02-23T16:23:44.524Z,53.5
2023-02-23T16:25:01.630Z,56.7
2023-02-23T16:26:18.734Z,55.1
2023-02-23T16:27:35.837Z,54.5
2023-02-23T16:28:51.958Z,53.9
2023-02-23T16:30:09.063Z,51.3
2023-02-23T16:31:26.168Z,52.7
2023-02-23T16:32:43.272Z,51
2023-02-23T16:34:00.377Z,52.7
2023-02-23T16:35:17.482Z,48.8
2023-02-23T16:36:33.608Z,50
2023-02-23T16:37:49.729Z,49.6
2023-02-23T16:39:05.855Z,47
2023-02-23T16:40:21.976Z,46.1
2023-02-23T16:41:39.082Z,45.6
2023-02-23T16:42:56.186Z,46.5
2023-02-23T16:44:13.291Z,45.9
2023-02-23T16:45:30.396Z,46.3
2023-02-23T16:46:47.501Z,45.1
2023-02-23T16:48:04.606Z,46.8
2023-02-23T16:49:21.710Z,46.4
2023-02-23T16:50:38.815Z,44.6
2023-02-23T16:51:55.920Z,45.3
2023-02-23T16:53:13.025Z,46
2023-02-23T16:54:30.130Z,46.7
2023-02-23T16:55:47.235Z,45.4
2023-02-23T16:57:03.356Z,47.9
2023-02-23T16:58:20.461Z,44.4
2023-02-23T16:59:37.566Z,44.4
2023-02-23T17:00:54.670Z,47.3
2023-02-23T17:02:11.775Z,45.5
2023-02-23T17:03:28.881Z,45.7
2023-02-23T17:04:45.986Z,45.7
2023-02-23T17:06:03.090Z,46.1
2023-02-23T17:07:20.195Z,47.6
2023-02-23T17:08:37.300Z,50.2
2023-02-23T17:09:54.405Z,50
2023-02-23T17:11:11.510Z,50.4
2023-02-23T17:12:28.615Z,49.3
2023-02-23T17:13:44.735Z,55.6
2023-02-23T17:15:01.841Z,55.1